Time;durP1;ratioP1;P1;durP2;ratioP2;P2;SDS_P1;SDS_P2;PMS_P1;PMS_P2;Temp;Humidity;BMP_temperature;BMP_pressure;BME280_temperature;BME280_humidity;BME280_pressure;Samples;Min_cycle;Max_cycle;Signal;HPM_P1;HPM_P2
2024/04/08 00:01:34;;;;;;;9.13;2.75;;;;;;;;;;5054884;28;20354;-58
2024/04/08 00:04:00;;;;;;;9.52;2.45;;;;;;;;;;5054751;28;20035;-57
2024/04/08 00:06:25;;;;;;;7.00;2.30;;;;;;;;;;5054776;28;20021;-57
2024/04/08 00:08:50;;;;;;;6.95;2.58;;;;;;;;;;5054720;28;20032;-58
2024/04/08 00:11:15;;;;;;;8.52;2.67;;;;;;;;;;5054657;28;20049;-56
2024/04/08 00:13:40;;;;;;;11.32;3.05;;;;;;;;;;5054751;28;20021;-57
2024/04/08 00:16:06;;;;;;;10.75;3.10;;;;;;;;;;5054899;28;20400;-57
2024/04/08 00:18:31;;;;;;;10.10;3.30;;;;;;;;;;5054882;28;20087;-57
2024/04/08 00:21:00;;;;;;;9.30;3.10;;;;;;;;;;5054609;28;20032;-57
2024/04/08 00:23:25;;;;;;;11.50;3.22;;;;;;;;;;5054846;28;20052;-56
2024/04/08 00:25:51;;;;;;;12.07;2.80;;;;;;;;;;5054497;28;20032;-57
2024/04/08 00:28:16;;;;;;;9.25;2.55;;;;;;;;;;5054486;28;20017;-56
2024/04/08 00:30:41;;;;;;;10.23;3.10;;;;;;;;;;5054733;28;20506;-56
2024/04/08 00:33:06;;;;;;;8.88;2.70;;;;;;;;;;5053525;28;20070;-58
2024/04/08 00:35:31;;;;;;;6.30;2.50;;;;;;;;;;5054301;28;20020;-56
2024/04/08 00:37:57;;;;;;;9.63;3.10;;;;;;;;;;5054352;28;20358;-57
2024/04/08 00:40:22;;;;;;;9.82;2.60;;;;;;;;;;5054408;28;20017;-57
2024/04/08 00:42:52;;;;;;;9.60;3.42;;;;;;;;;;5053372;28;20021;-57
2024/04/08 00:45:18;;;;;;;8.85;3.08;;;;;;;;;;5054639;28;20028;-55
2024/04/08 00:47:43;;;;;;;7.28;2.83;;;;;;;;;;5054284;28;20036;-54
2024/04/08 00:50:10;;;;;;;9.02;2.90;;;;;;;;;;5054302;28;20028;-55
2024/04/08 00:52:35;;;;;;;8.55;2.60;;;;;;;;;;5054275;28;20025;-56
2024/04/08 00:55:01;;;;;;;8.23;2.95;;;;;;;;;;5054136;28;20017;-56
2024/04/08 00:57:26;;;;;;;7.95;3.08;;;;;;;;;;5054262;28;20013;-56
2024/04/08 00:59:51;;;;;;;7.05;2.85;;;;;;;;;;5053210;28;20029;-57
2024/04/08 01:02:17;;;;;;;9.98;3.60;;;;;;;;;;5054177;28;20104;-56
2024/04/08 01:04:42;;;;;;;7.32;3.10;;;;;;;;;;5054015;28;20419;-57
2024/04/08 01:07:08;;;;;;;10.88;3.92;;;;;;;;;;5053949;28;20346;-56
2024/04/08 01:09:33;;;;;;;8.88;3.28;;;;;;;;;;5054056;28;20033;-57
2024/04/08 01:11:58;;;;;;;10.73;3.20;;;;;;;;;;5053821;28;20017;-56
2024/04/08 01:14:24;;;;;;;7.30;2.85;;;;;;;;;;5054084;28;20346;-57
2024/04/08 01:16:49;;;;;;;6.55;3.17;;;;;;;;;;5053899;28;20025;-58
2024/04/08 01:19:18;;;;;;;11.52;3.40;;;;;;;;;;5053880;28;20303;-57
2024/04/08 01:21:44;;;;;;;9.45;3.42;;;;;;;;;;5053743;28;20023;-58
2024/04/08 01:24:09;;;;;;;8.70;3.55;;;;;;;;;;5053830;28;20115;-57
2024/04/08 01:26:34;;;;;;;11.27;3.50;;;;;;;;;;5053702;28;20439;-57
2024/04/08 01:29:00;;;;;;;6.78;2.70;;;;;;;;;;5054122;28;20086;-56
2024/04/08 01:31:25;;;;;;;10.88;3.60;;;;;;;;;;5053799;28;20063;-56
2024/04/08 01:33:50;;;;;;;11.05;3.65;;;;;;;;;;5053605;28;20024;-57
2024/04/08 01:36:15;;;;;;;10.80;3.42;;;;;;;;;;5053813;28;20051;-57
2024/04/08 01:38:40;;;;;;;8.95;3.05;;;;;;;;;;5054075;28;20104;-55
2024/04/08 01:41:06;;;;;;;9.68;3.65;;;;;;;;;;5053761;28;20020;-54
2024/04/08 01:43:31;;;;;;;9.55;3.50;;;;;;;;;;5053974;28;20422;-56
2024/04/08 01:45:56;;;;;;;11.13;3.45;;;;;;;;;;5053943;28;20314;-57
2024/04/08 01:48:22;;;;;;;8.20;3.47;;;;;;;;;;5053648;28;20063;-54
2024/04/08 01:50:47;;;;;;;9.18;3.05;;;;;;;;;;5053565;28;20021;-57
2024/04/08 01:53:12;;;;;;;14.68;3.80;;;;;;;;;;5053584;28;20032;-56
2024/04/08 01:55:37;;;;;;;9.00;3.92;;;;;;;;;;5055766;28;20036;-57
2024/04/08 01:58:03;;;;;;;11.90;4.15;;;;;;;;;;5057924;28;20021;-54
2024/04/08 02:00:28;;;;;;;12.00;4.80;;;;;;;;;;5057146;28;20109;-57
2024/04/08 02:02:53;;;;;;;10.50;4.45;;;;;;;;;;5057482;28;20457;-57
2024/04/08 02:05:19;;;;;;;11.05;4.47;;;;;;;;;;5057089;28;20025;-53
2024/04/08 02:07:45;;;;;;;12.43;5.35;;;;;;;;;;5057152;28;20079;-54
2024/04/08 02:10:10;;;;;;;11.63;5.13;;;;;;;;;;5057012;28;20445;-57
2024/04/08 02:12:35;;;;;;;15.45;5.25;;;;;;;;;;5055952;28;20036;-57
2024/04/08 02:15:00;;;;;;;9.48;4.50;;;;;;;;;;5057284;28;20419;-57
2024/04/08 02:17:26;;;;;;;10.52;5.15;;;;;;;;;;5056825;28;20013;-57
2024/04/08 02:19:51;;;;;;;10.27;4.75;;;;;;;;;;5056907;28;20032;-57
2024/04/08 02:22:16;;;;;;;8.98;4.65;;;;;;;;;;5056998;28;20021;-56
2024/04/08 02:24:42;;;;;;;10.65;4.22;;;;;;;;;;5056686;28;20083;-57
2024/04/08 02:27:08;;;;;;;10.85;3.47;;;;;;;;;;5056579;28;20025;-57
2024/04/08 02:29:34;;;;;;;11.40;3.85;;;;;;;;;;5056571;28;20462;-57
2024/04/08 02:31:59;;;;;;;9.85;3.20;;;;;;;;;;5056843;28;20488;-55
2024/04/08 02:34:24;;;;;;;8.52;2.97;;;;;;;;;;5056456;28;20021;-58
2024/04/08 02:36:49;;;;;;;8.18;3.03;;;;;;;;;;5056489;28;20036;-57
2024/04/08 02:39:14;;;;;;;8.85;3.00;;;;;;;;;;5056413;28;20017;-55
2024/04/08 02:41:40;;;;;;;9.43;2.40;;;;;;;;;;5056331;28;20013;-57
2024/04/08 02:44:05;;;;;;;8.45;2.50;;;;;;;;;;5057287;28;20446;-56
2024/04/08 02:46:30;;;;;;;8.70;2.40;;;;;;;;;;5056449;28;20025;-53
2024/04/08 02:48:55;;;;;;;6.07;2.50;;;;;;;;;;5056443;28;20115;-56
2024/04/08 02:51:21;;;;;;;7.55;2.30;;;;;;;;;;5056544;28;20108;-57
2024/04/08 02:53:46;;;;;;;12.02;2.78;;;;;;;;;;5056067;28;20032;-55
2024/04/08 02:56:11;;;;;;;6.65;2.65;;;;;;;;;;5056149;28;20013;-54
2024/04/08 02:58:36;;;;;;;6.22;2.60;;;;;;;;;;5056282;28;20024;-54
2024/04/08 03:01:09;;;;;;;9.85;2.90;;;;;;;;;;5070964;23;20045;-86
2024/04/08 03:03:36;;;;;;;11.80;2.58;;;;;;;;;;5074538;28;20121;-86
2024/04/08 03:06:15;;;;;;;15.48;3.33;;;;;;;;;;5074421;28;20024;-86
2024/04/08 03:08:42;;;;;;;8.68;2.78;;;;;;;;;;5075604;28;20024;-86
2024/04/08 03:11:09;;;;;;;6.25;2.83;;;;;;;;;;5075828;28;20035;-86
2024/04/08 03:13:39;;;;;;;7.32;2.42;;;;;;;;;;5074148;28;20024;-85
2024/04/08 03:16:05;;;;;;;7.50;2.95;;;;;;;;;;5074692;28;20406;-85
2024/04/08 03:18:32;;;;;;;12.93;2.92;;;;;;;;;;5074508;28;20021;-85
2024/04/08 03:20:59;;;;;;;5.97;2.55;;;;;;;;;;5074374;28;20025;-86
2024/04/08 03:23:26;;;;;;;10.05;3.33;;;;;;;;;;5074420;28;20020;-85
2024/04/08 03:26:03;;;;;;;8.85;2.70;;;;;;;;;;5075306;28;20082;-86
2024/04/08 03:28:30;;;;;;;7.78;2.90;;;;;;;;;;5074447;28;20020;-86
2024/04/08 03:30:57;;;;;;;7.45;2.97;;;;;;;;;;5075377;28;20016;-86
2024/04/08 03:33:24;;;;;;;9.80;3.10;;;;;;;;;;5075329;28;20012;-86
2024/04/08 03:35:49;;;;;;;6.63;2.67;;;;;;;;;;5074454;28;20024;-86
2024/04/08 03:38:15;;;;;;;7.60;3.03;;;;;;;;;;5074586;28;20020;-86
2024/04/08 03:40:42;;;;;;;7.45;2.67;;;;;;;;;;5074323;28;20032;-86
2024/04/08 03:43:09;;;;;;;8.43;3.25;;;;;;;;;;5075276;28;20065;-86
2024/04/08 03:45:37;;;;;;;7.57;3.00;;;;;;;;;;5073944;28;20028;-86
2024/04/08 03:48:04;;;;;;;8.10;3.45;;;;;;;;;;5074385;28;20095;-86
2024/04/08 03:50:31;;;;;;;11.00;3.30;;;;;;;;;;5074158;28;20028;-86
2024/04/08 03:52:57;;;;;;;10.85;3.10;;;;;;;;;;5074287;28;20024;-86
2024/04/08 03:55:27;;;;;;;11.73;3.60;;;;;;;;;;5074954;28;20021;-86
2024/04/08 03:57:54;;;;;;;8.00;3.42;;;;;;;;;;5074086;28;20039;-86
2024/04/08 04:00:20;;;;;;;11.38;3.10;;;;;;;;;;5073876;28;20035;-85
2024/04/08 04:04:24;;;;;;;7.22;3.30;;;;;;;;;;5438648;26;20421;-56
2024/04/08 04:06:49;;;;;;;8.27;3.20;;;;;;;;;;5438712;26;20003;-57
2024/04/08 04:09:14;;;;;;;9.82;3.58;;;;;;;;;;5438690;26;20346;-54
2024/04/08 04:11:39;;;;;;;10.55;3.33;;;;;;;;;;5436725;26;19995;-54
2024/04/08 04:14:05;;;;;;;11.07;3.55;;;;;;;;;;5438503;26;19987;-56
2024/04/08 04:16:30;;;;;;;6.35;3.25;;;;;;;;;;5438654;26;20003;-56
2024/04/08 04:18:55;;;;;;;8.80;3.25;;;;;;;;;;5438637;26;20003;-56
2024/04/08 04:21:21;;;;;;;11.50;3.60;;;;;;;;;;5438645;26;20003;-57
2024/04/08 04:23:46;;;;;;;12.68;4.22;;;;;;;;;;5438174;26;20011;-57
2024/04/08 04:26:11;;;;;;;8.18;3.72;;;;;;;;;;5438511;26;20002;-53
2024/04/08 04:28:36;;;;;;;7.20;4.07;;;;;;;;;;5438785;26;19995;-57
2024/04/08 04:31:02;;;;;;;8.63;4.05;;;;;;;;;;5436597;26;19995;-54
2024/04/08 04:33:27;;;;;;;8.88;4.18;;;;;;;;;;5438432;26;19991;-55
2024/04/08 04:35:53;;;;;;;7.90;4.28;;;;;;;;;;5438112;26;19987;-57
2024/04/08 04:38:18;;;;;;;13.10;4.30;;;;;;;;;;5438376;26;19995;-56
2024/04/08 04:40:44;;;;;;;11.10;4.20;;;;;;;;;;5438043;26;19995;-56
2024/04/08 04:43:09;;;;;;;11.88;5.10;;;;;;;;;;5438153;26;19991;-56
2024/04/08 04:45:34;;;;;;;15.20;5.20;;;;;;;;;;5438235;26;19988;-56
2024/04/08 04:47:59;;;;;;;11.70;5.13;;;;;;;;;;5437942;26;20029;-55
2024/04/08 04:50:24;;;;;;;9.35;5.00;;;;;;;;;;5438150;26;20285;-53
2024/04/08 04:52:50;;;;;;;12.25;5.18;;;;;;;;;;5437981;26;20436;-54
2024/04/08 04:55:15;;;;;;;10.02;5.00;;;;;;;;;;5437966;26;20007;-54
2024/04/08 04:57:40;;;;;;;12.23;5.30;;;;;;;;;;5438098;26;19995;-54
2024/04/08 05:00:06;;;;;;;11.93;6.10;;;;;;;;;;5438129;26;20001;-57
2024/04/08 05:02:31;;;;;;;25.20;7.88;;;;;;;;;;5437828;26;19999;-54
2024/04/08 05:04:56;;;;;;;33.67;9.38;;;;;;;;;;5438007;26;19998;-56
2024/04/08 05:07:21;;;;;;;25.05;7.65;;;;;;;;;;5437935;26;20006;-54
2024/04/08 05:09:46;;;;;;;14.55;5.68;;;;;;;;;;5437788;26;20388;-56
2024/04/08 05:12:12;;;;;;;14.88;5.60;;;;;;;;;;5437757;26;19995;-55
2024/04/08 05:14:37;;;;;;;11.05;5.97;;;;;;;;;;5428410;26;20395;-56
2024/04/08 05:17:02;;;;;;;12.32;5.32;;;;;;;;;;5422411;26;20393;-54
2024/04/08 05:19:27;;;;;;;10.18;5.30;;;;;;;;;;5422427;26;19987;-55
2024/04/08 05:21:53;;;;;;;11.60;5.30;;;;;;;;;;5422378;26;20284;-56
2024/04/08 05:24:18;;;;;;;13.60;5.68;;;;;;;;;;5421981;26;19994;-57
2024/04/08 05:26:43;;;;;;;11.45;5.28;;;;;;;;;;5422332;26;19995;-57
2024/04/08 05:29:08;;;;;;;13.50;5.85;;;;;;;;;;5422295;26;20026;-56
2024/04/08 05:31:33;;;;;;;11.52;5.72;;;;;;;;;;5421819;26;19999;-58
2024/04/08 05:33:59;;;;;;;13.73;5.63;;;;;;;;;;5422145;26;20015;-58
2024/04/08 05:36:24;;;;;;;12.15;5.95;;;;;;;;;;5422226;26;20006;-58
2024/04/08 05:38:49;;;;;;;9.57;5.07;;;;;;;;;;5421733;26;20042;-57
2024/04/08 05:41:15;;;;;;;11.88;5.80;;;;;;;;;;5422056;26;19995;-57
2024/04/08 05:43:40;;;;;;;10.73;5.65;;;;;;;;;;5420149;26;19999;-56
2024/04/08 05:46:05;;;;;;;11.10;5.65;;;;;;;;;;5421986;26;20285;-57
2024/04/08 05:48:30;;;;;;;12.65;6.13;;;;;;;;;;5421633;26;19988;-57
2024/04/08 05:50:56;;;;;;;11.07;6.03;;;;;;;;;;5421898;26;20416;-57
2024/04/08 05:53:22;;;;;;;11.70;6.10;;;;;;;;;;5420212;26;20415;-57
2024/04/08 05:55:47;;;;;;;14.05;6.60;;;;;;;;;;5421609;26;19987;-57
2024/04/08 05:58:12;;;;;;;16.27;6.70;;;;;;;;;;5421971;26;19995;-54
2024/04/08 06:00:38;;;;;;;14.15;7.10;;;;;;;;;;5421777;26;19988;-57
2024/04/08 06:03:04;;;;;;;12.15;6.78;;;;;;;;;;5421765;26;20003;-56
2024/04/08 06:05:29;;;;;;;11.32;6.47;;;;;;;;;;5419884;26;19999;-55
2024/04/08 06:07:54;;;;;;;11.43;6.20;;;;;;;;;;5421659;26;20292;-57
2024/04/08 06:10:20;;;;;;;10.35;5.75;;;;;;;;;;5421927;26;19988;-56
2024/04/08 06:12:46;;;;;;;13.77;6.53;;;;;;;;;;5421730;26;19995;-57
2024/04/08 06:15:15;;;;;;;13.20;6.07;;;;;;;;;;5421492;26;19994;-56
2024/04/08 06:17:40;;;;;;;12.57;5.47;;;;;;;;;;5421510;26;20006;-57
2024/04/08 06:20:06;;;;;;;9.60;5.60;;;;;;;;;;5421506;26;20296;-57
2024/04/08 06:22:31;;;;;;;12.50;5.63;;;;;;;;;;5421257;26;20010;-57
2024/04/08 06:24:56;;;;;;;10.93;5.68;;;;;;;;;;5421406;26;19999;-56
2024/04/08 06:27:22;;;;;;;11.18;5.60;;;;;;;;;;5419622;26;19995;-55
2024/04/08 06:29:47;;;;;;;12.95;5.45;;;;;;;;;;5421372;26;20005;-57
2024/04/08 06:32:12;;;;;;;12.05;5.90;;;;;;;;;;5421333;26;19992;-57
2024/04/08 06:34:37;;;;;;;14.55;6.00;;;;;;;;;;5421301;26;20003;-57
2024/04/08 06:37:02;;;;;;;13.68;6.38;;;;;;;;;;5421089;26;19992;-57
2024/04/08 06:39:28;;;;;;;17.83;5.72;;;;;;;;;;5421286;26;19992;-55
2024/04/08 06:41:53;;;;;;;13.23;5.85;;;;;;;;;;5421505;26;20411;-58
2024/04/08 06:44:18;;;;;;;15.45;7.00;;;;;;;;;;5421454;26;19991;-58
2024/04/08 06:46:43;;;;;;;15.38;6.45;;;;;;;;;;5421242;26;20304;-57
2024/04/08 06:49:09;;;;;;;16.02;6.38;;;;;;;;;;5420975;26;20003;-56
2024/04/08 06:51:34;;;;;;;20.42;7.05;;;;;;;;;;5419383;26;20069;-57
2024/04/08 06:54:00;;;;;;;18.02;6.68;;;;;;;;;;5421182;26;20073;-57
2024/04/08 06:56:25;;;;;;;15.38;6.25;;;;;;;;;;5420828;26;19999;-57
2024/04/08 06:58:50;;;;;;;13.55;6.15;;;;;;;;;;5421120;26;20408;-57
2024/04/08 07:01:16;;;;;;;15.13;6.47;;;;;;;;;;5420986;26;20281;-57
2024/04/08 07:03:41;;;;;;;15.05;6.28;;;;;;;;;;5420815;26;19999;-57
2024/04/08 07:06:07;;;;;;;10.98;5.38;;;;;;;;;;5420914;26;20003;-57
2024/04/08 07:08:32;;;;;;;14.93;5.93;;;;;;;;;;5420717;26;19996;-57
2024/04/08 07:10:58;;;;;;;13.77;5.20;;;;;;;;;;5420962;26;20061;-57
2024/04/08 07:13:23;;;;;;;13.68;6.45;;;;;;;;;;5420844;26;19996;-57
2024/04/08 07:15:57;;;;;;;13.45;5.85;;;;;;;;;;5420940;26;19991;-56
2024/04/08 07:18:23;;;;;;;13.55;5.53;;;;;;;;;;5420628;26;20367;-56
2024/04/08 07:20:48;;;;;;;15.32;6.00;;;;;;;;;;5420796;26;20008;-57
2024/04/08 07:23:13;;;;;;;15.75;5.38;;;;;;;;;;5420206;26;20304;-57
2024/04/08 07:25:38;;;;;;;16.92;5.85;;;;;;;;;;5420977;26;20000;-58
2024/04/08 07:28:04;;;;;;;17.67;5.65;;;;;;;;;;5418670;26;19995;-57
2024/04/08 07:30:29;;;;;;;11.80;4.90;;;;;;;;;;5420454;26;19998;-58
2024/04/08 07:32:55;;;;;;;13.85;4.88;;;;;;;;;;5420544;26;20290;-55
2024/04/08 07:35:21;;;;;;;11.60;4.25;;;;;;;;;;5420471;26;19999;-55
2024/04/08 07:37:46;;;;;;;12.55;4.30;;;;;;;;;;5419575;26;20031;-57
2024/04/08 07:40:12;;;;;;;12.18;4.50;;;;;;;;;;5420036;26;20038;-57
2024/04/08 07:42:37;;;;;;;9.57;4.47;;;;;;;;;;5420255;26;20000;-56
2024/04/08 07:45:02;;;;;;;9.02;4.30;;;;;;;;;;5420196;26;20431;-56
2024/04/08 07:47:27;;;;;;;10.85;4.32;;;;;;;;;;5420269;26;20010;-58
2024/04/08 07:49:56;;;;;;;10.90;4.18;;;;;;;;;;5420231;26;20005;-58
2024/04/08 07:52:21;;;;;;;8.55;4.00;;;;;;;;;;5418461;26;20419;-56
2024/04/08 07:54:46;;;;;;;12.55;4.20;;;;;;;;;;5419702;26;19995;-56
2024/04/08 07:57:11;;;;;;;10.68;4.40;;;;;;;;;;5419658;26;19995;-58
2024/04/08 07:59:37;;;;;;;10.65;4.38;;;;;;;;;;5420062;26;19999;-56
2024/04/08 08:02:02;;;;;;;8.77;3.65;;;;;;;;;;5419608;26;19992;-56
2024/04/08 08:04:27;;;;;;;9.93;4.13;;;;;;;;;;5420681;26;20002;-57
2024/04/08 08:06:52;;;;;;;15.70;4.47;;;;;;;;;;5419465;26;19996;-57
2024/04/08 08:09:18;;;;;;;10.80;4.28;;;;;;;;;;5419734;26;20000;-57
2024/04/08 08:11:43;;;;;;;10.63;4.18;;;;;;;;;;5417882;26;19996;-57
2024/04/08 08:14:08;;;;;;;10.60;4.55;;;;;;;;;;5419524;26;19991;-58
2024/04/08 08:16:34;;;;;;;9.73;4.40;;;;;;;;;;5419565;26;20000;-56
2024/04/08 08:18:59;;;;;;;9.50;4.40;;;;;;;;;;5419560;26;20007;-57
2024/04/08 08:21:24;;;;;;;8.32;4.15;;;;;;;;;;5419000;26;20007;-57
2024/04/08 08:23:49;;;;;;;11.85;4.70;;;;;;;;;;5418889;26;19987;-58
2024/04/08 08:26:14;;;;;;;9.65;4.32;;;;;;;;;;5419443;26;19999;-57
2024/04/08 08:28:40;;;;;;;12.10;4.43;;;;;;;;;;5419634;26;19999;-57
2024/04/08 08:31:05;;;;;;;13.55;4.80;;;;;;;;;;5419683;26;20399;-56
2024/04/08 08:33:31;;;;;;;10.05;4.20;;;;;;;;;;5419163;26;20018;-57
2024/04/08 08:35:56;;;;;;;12.50;5.07;;;;;;;;;;5418994;26;20006;-57
2024/04/08 08:38:21;;;;;;;8.80;4.10;;;;;;;;;;5419093;26;20411;-57
2024/04/08 08:40:50;;;;;;;10.52;4.57;;;;;;;;;;5419728;26;20392;-57
2024/04/08 08:43:15;;;;;;;8.82;4.55;;;;;;;;;;5419407;26;19999;-57
2024/04/08 08:45:46;;;;;;;13.13;6.35;;;;;;;;;;5419257;26;20010;-57
2024/04/08 08:48:11;;;;;;;14.70;3.92;;;;;;;;;;5418850;26;19995;-57
2024/04/08 08:50:36;;;;;;;12.00;4.47;;;;;;;;;;5421816;26;20419;-57
2024/04/08 08:53:03;;;;;;;9.52;4.47;;;;;;;;;;5422840;26;19991;-57
2024/04/08 08:55:30;;;;;;;11.93;4.78;;;;;;;;;;5422589;26;20010;-57
2024/04/08 08:57:55;;;;;;;13.13;4.40;;;;;;;;;;5422633;26;20311;-57
2024/04/08 09:00:21;;;;;;;10.68;3.95;;;;;;;;;;5422694;26;20000;-57
2024/04/08 09:02:48;;;;;;;13.73;4.43;;;;;;;;;;5422460;26;20014;-57
2024/04/08 09:05:13;;;;;;;12.27;4.60;;;;;;;;;;5422585;26;19999;-57
2024/04/08 09:07:38;;;;;;;11.23;4.40;;;;;;;;;;5422584;26;20296;-57
2024/04/08 09:10:03;;;;;;;8.88;4.28;;;;;;;;;;5420778;26;20065;-56
2024/04/08 09:12:29;;;;;;;11.80;4.60;;;;;;;;;;5422318;26;20004;-57
2024/04/08 09:14:54;;;;;;;16.98;5.85;;;;;;;;;;5420736;26;20006;-58
2024/04/08 09:17:20;;;;;;;9.68;4.78;;;;;;;;;;5422513;26;19999;-57
2024/04/08 09:19:45;;;;;;;9.63;4.35;;;;;;;;;;5422429;26;20033;-57
2024/04/08 09:22:11;;;;;;;11.68;4.80;;;;;;;;;;5422191;26;20044;-57
2024/04/08 09:24:36;;;;;;;13.50;5.15;;;;;;;;;;5422231;26;20014;-57
2024/04/08 09:27:01;;;;;;;12.57;4.72;;;;;;;;;;5422168;26;20006;-57
2024/04/08 09:29:27;;;;;;;13.20;4.85;;;;;;;;;;5422398;26;20011;-57
2024/04/08 09:31:52;;;;;;;14.88;5.07;;;;;;;;;;5422216;26;20061;-57
2024/04/08 09:34:18;;;;;;;10.20;4.40;;;;;;;;;;5422031;26;20008;-57
2024/04/08 09:36:44;;;;;;;10.90;4.55;;;;;;;;;;5421931;26;20031;-57
2024/04/08 09:39:11;;;;;;;10.13;4.78;;;;;;;;;;5422366;26;20435;-57
2024/04/08 09:41:37;;;;;;;12.02;4.65;;;;;;;;;;5421937;26;19996;-56
2024/04/08 09:44:02;;;;;;;11.80;4.72;;;;;;;;;;5421746;26;20006;-57
2024/04/08 09:46:27;;;;;;;15.45;4.85;;;;;;;;;;5421969;26;20368;-57
2024/04/08 09:48:53;;;;;;;9.95;4.70;;;;;;;;;;5421988;26;20006;-57
2024/04/08 09:51:19;;;;;;;13.07;5.47;;;;;;;;;;5422231;26;19988;-57
2024/04/08 09:53:44;;;;;;;12.93;4.50;;;;;;;;;;5421950;26;20007;-57
2024/04/08 09:56:16;;;;;;;14.15;5.47;;;;;;;;;;5421968;26;20010;-57
2024/04/08 09:58:44;;;;;;;13.43;5.50;;;;;;;;;;5421857;26;19996;-57
2024/04/08 10:01:12;;;;;;;14.70;5.60;;;;;;;;;;5421351;26;20064;-57
2024/04/08 10:03:48;;;;;;;11.45;5.00;;;;;;;;;;5421091;26;20002;-61
2024/04/08 10:06:14;;;;;;;10.43;5.55;;;;;;;;;;5422049;26;20003;-57
2024/04/08 10:08:40;;;;;;;17.98;5.40;;;;;;;;;;5421719;26;19996;-57
2024/04/08 10:11:06;;;;;;;12.48;5.22;;;;;;;;;;5421500;26;19999;-56
2024/04/08 10:13:31;;;;;;;13.63;5.43;;;;;;;;;;5421181;26;20367;-57
2024/04/08 10:16:14;;;;;;;11.88;5.20;;;;;;;;;;5421299;26;19991;-57
2024/04/08 10:19:07;;;;;;;12.57;5.50;;;;;;;;;;5421251;26;20003;-57
2024/04/08 10:21:32;;;;;;;12.25;5.60;;;;;;;;;;5419648;26;19995;-57
2024/04/08 10:23:58;;;;;;;9.45;4.97;;;;;;;;;;5421079;26;19987;-57
2024/04/08 10:26:26;;;;;;;16.67;5.40;;;;;;;;;;5420975;26;19996;-57
2024/04/08 10:28:52;;;;;;;12.10;5.15;;;;;;;;;;5421292;26;20003;-56
2024/04/08 10:31:20;;;;;;;11.68;5.43;;;;;;;;;;5421313;26;20000;-57
2024/04/08 10:33:45;;;;;;;13.73;5.38;;;;;;;;;;5421370;26;20359;-58
2024/04/08 10:36:10;;;;;;;15.05;6.07;;;;;;;;;;5421155;26;20004;-57
2024/04/08 10:38:36;;;;;;;15.73;5.18;;;;;;;;;;5421175;26;20061;-58
2024/04/08 10:41:10;;;;;;;13.00;4.88;;;;;;;;;;5421154;26;20015;-57
2024/04/08 10:43:35;;;;;;;16.75;5.00;;;;;;;;;;5420274;26;20031;-57
2024/04/08 10:46:21;;;;;;;10.88;4.53;;;;;;;;;;5420995;26;20026;-57
2024/04/08 10:48:47;;;;;;;9.02;3.90;;;;;;;;;;5420666;26;19999;-57
2024/04/08 10:51:12;;;;;;;13.02;4.60;;;;;;;;;;5420958;26;20292;-58
2024/04/08 10:53:42;;;;;;;10.43;4.20;;;;;;;;;;5418871;26;20014;-57
2024/04/08 10:56:07;;;;;;;9.75;3.83;;;;;;;;;;5420914;26;19996;-56
2024/04/08 10:58:32;;;;;;;13.75;3.95;;;;;;;;;;5421033;26;20009;-58
2024/04/08 11:00:58;;;;;;;12.80;4.10;;;;;;;;;;5420673;26;19992;-59
2024/04/08 11:03:24;;;;;;;15.70;4.80;;;;;;;;;;5419911;26;20007;-58
2024/04/08 11:05:49;;;;;;;13.77;4.70;;;;;;;;;;5412226;26;20004;-58
2024/04/08 11:08:16;;;;;;;10.10;4.00;;;;;;;;;;5412957;26;19999;-59
2024/04/08 11:10:45;;;;;;;10.30;3.80;;;;;;;;;;5421112;26;20333;-59
2024/04/08 11:13:10;;;;;;;16.45;5.15;;;;;;;;;;5419896;26;20401;-59
2024/04/08 11:15:36;;;;;;;10.77;4.03;;;;;;;;;;5421182;26;19995;-59
2024/04/08 11:18:01;;;;;;;10.52;4.15;;;;;;;;;;5420686;26;20391;-58
2024/04/08 11:20:27;;;;;;;13.32;4.40;;;;;;;;;;5420740;26;20064;-58
2024/04/08 11:22:53;;;;;;;16.05;4.90;;;;;;;;;;5420582;26;20028;-58
2024/04/08 11:25:18;;;;;;;13.35;4.40;;;;;;;;;;5420665;26;19999;-58
2024/04/08 11:27:44;;;;;;;13.95;4.55;;;;;;;;;;5420988;26;20009;-59
2024/04/08 11:30:16;;;;;;;12.55;3.80;;;;;;;;;;5420490;26;19995;-59
2024/04/08 11:32:42;;;;;;;13.65;4.78;;;;;;;;;;5419412;26;20003;-58
2024/04/08 11:35:08;;;;;;;12.40;4.60;;;;;;;;;;5420745;26;20006;-59
2024/04/08 11:37:33;;;;;;;12.65;5.25;;;;;;;;;;5420482;26;20423;-58
2024/04/08 11:39:59;;;;;;;12.80;4.80;;;;;;;;;;5418951;26;20006;-59
2024/04/08 11:42:24;;;;;;;12.27;4.32;;;;;;;;;;5420407;26;20415;-58
2024/04/08 11:44:59;;;;;;;15.18;5.60;;;;;;;;;;5420167;26;19991;-59
2024/04/08 11:47:25;;;;;;;11.98;5.70;;;;;;;;;;5385032;26;20027;-59
2024/04/08 11:49:50;;;;;;;13.05;5.32;;;;;;;;;;5385129;26;20297;-58
2024/04/08 11:52:15;;;;;;;14.25;5.72;;;;;;;;;;5384731;26;19992;-58
2024/04/08 11:54:40;;;;;;;12.55;4.90;;;;;;;;;;5384554;26;20282;-59
2024/04/08 11:57:07;;;;;;;13.13;5.10;;;;;;;;;;5384372;26;19992;-59
2024/04/08 11:59:32;;;;;;;12.27;5.60;;;;;;;;;;5432171;26;20016;-59
2024/04/08 12:01:57;;;;;;;12.98;4.80;;;;;;;;;;5420263;26;20300;-59
2024/04/08 12:04:23;;;;;;;15.07;5.40;;;;;;;;;;5419864;26;20006;-59
2024/04/08 12:06:48;;;;;;;12.55;5.32;;;;;;;;;;5419768;26;19995;-59
2024/04/08 12:09:13;;;;;;;19.92;5.55;;;;;;;;;;5420113;26;20010;-59
2024/04/08 12:11:38;;;;;;;13.07;5.20;;;;;;;;;;5420074;26;19992;-59
2024/04/08 12:14:04;;;;;;;11.63;4.80;;;;;;;;;;5418342;26;20002;-59
2024/04/08 12:16:29;;;;;;;12.02;5.53;;;;;;;;;;5419288;26;20015;-58
2024/04/08 12:18:54;;;;;;;8.85;4.53;;;;;;;;;;5419814;26;20116;-58
2024/04/08 12:21:19;;;;;;;15.88;5.53;;;;;;;;;;5419570;26;19995;-58
2024/04/08 12:23:45;;;;;;;14.18;5.28;;;;;;;;;;5420907;26;20000;-59
2024/04/08 12:26:13;;;;;;;15.38;6.10;;;;;;;;;;5423355;26;20392;-58
2024/04/08 12:28:38;;;;;;;12.40;5.95;;;;;;;;;;5423336;26;20006;-58
2024/04/08 12:31:03;;;;;;;14.50;6.50;;;;;;;;;;5422596;26;20003;-57
2024/04/08 12:33:28;;;;;;;11.82;5.95;;;;;;;;;;5423436;26;19992;-58
2024/04/08 12:35:54;;;;;;;17.73;6.00;;;;;;;;;;5423378;26;19991;-58
2024/04/08 12:38:19;;;;;;;14.15;5.35;;;;;;;;;;5423517;26;19995;-58
2024/04/08 12:40:44;;;;;;;16.75;5.93;;;;;;;;;;5423225;26;20101;-58
2024/04/08 12:43:09;;;;;;;11.35;6.05;;;;;;;;;;5422743;26;20278;-58
2024/04/08 12:45:35;;;;;;;15.05;5.97;;;;;;;;;;5422412;26;19996;-58
2024/04/08 12:48:00;;;;;;;17.70;6.30;;;;;;;;;;5422800;26;20002;-58
2024/04/08 12:50:26;;;;;;;15.32;6.25;;;;;;;;;;5422974;26;19996;-58
2024/04/08 12:52:51;;;;;;;15.32;6.30;;;;;;;;;;5422760;26;20006;-58
2024/04/08 12:55:16;;;;;;;14.32;5.18;;;;;;;;;;5415014;26;20079;-57
2024/04/08 12:57:41;;;;;;;12.23;4.65;;;;;;;;;;5410037;26;19999;-58
2024/04/08 13:00:09;;;;;;;16.48;5.90;;;;;;;;;;5422299;26;19999;-58
2024/04/08 13:02:34;;;;;;;13.05;5.32;;;;;;;;;;5420948;26;20094;-57
2024/04/08 13:05:00;;;;;;;14.65;6.35;;;;;;;;;;5422959;26;20376;-58
2024/04/08 13:07:25;;;;;;;17.23;6.18;;;;;;;;;;5422571;26;20061;-58
2024/04/08 13:09:51;;;;;;;17.55;6.05;;;;;;;;;;5422475;26;20000;-58
2024/04/08 13:12:16;;;;;;;11.10;5.50;;;;;;;;;;5422706;26;20007;-57
2024/04/08 13:14:41;;;;;;;18.27;6.43;;;;;;;;;;5422766;26;19996;-58
2024/04/08 13:17:07;;;;;;;16.52;6.40;;;;;;;;;;5421890;26;20006;-58
2024/04/08 13:19:32;;;;;;;14.50;6.35;;;;;;;;;;5422337;26;19995;-58
2024/04/08 13:21:57;;;;;;;14.90;6.93;;;;;;;;;;5422111;26;20002;-58
2024/04/08 13:24:23;;;;;;;17.30;7.82;;;;;;;;;;5421962;26;20038;-58
2024/04/08 13:26:48;;;;;;;13.60;7.10;;;;;;;;;;5422084;26;20019;-58
2024/04/08 13:29:13;;;;;;;18.00;6.75;;;;;;;;;;5422280;26;20002;-58
2024/04/08 13:31:38;;;;;;;14.70;6.13;;;;;;;;;;5421696;26;20010;-58
2024/04/08 13:34:04;;;;;;;16.25;6.47;;;;;;;;;;5421984;26;20069;-58
2024/04/08 13:36:29;;;;;;;14.23;5.75;;;;;;;;;;5421395;26;20010;-57
2024/04/08 13:38:54;;;;;;;12.98;6.05;;;;;;;;;;5420479;26;20000;-58
2024/04/08 13:41:20;;;;;;;14.88;6.03;;;;;;;;;;5422189;26;20396;-58
2024/04/08 13:43:45;;;;;;;18.70;5.68;;;;;;;;;;5421892;26;20337;-57
2024/04/08 13:46:10;;;;;;;19.55;6.20;;;;;;;;;;5421750;26;20424;-58
2024/04/08 13:48:36;;;;;;;13.38;5.82;;;;;;;;;;5422311;26;20003;-58
2024/04/08 13:51:02;;;;;;;11.82;5.72;;;;;;;;;;5422344;26;20296;-58
2024/04/08 13:53:27;;;;;;;15.32;5.53;;;;;;;;;;5422407;26;20072;-58
2024/04/08 13:55:57;;;;;;;11.60;5.13;;;;;;;;;;5420451;26;20416;-58
2024/04/08 13:58:22;;;;;;;14.73;5.38;;;;;;;;;;5421709;26;20004;-58
2024/04/08 14:00:48;;;;;;;13.82;5.05;;;;;;;;;;5421803;26;20033;-58
2024/04/08 14:03:13;;;;;;;12.52;4.72;;;;;;;;;;5421718;26;20297;-58
2024/04/08 14:05:38;;;;;;;13.13;5.25;;;;;;;;;;5421874;26;20327;-57
2024/04/08 14:08:04;;;;;;;17.73;5.47;;;;;;;;;;5421595;26;20420;-60
2024/04/08 14:10:29;;;;;;;12.70;4.93;;;;;;;;;;5422070;26;20433;-58
2024/04/08 14:12:54;;;;;;;20.55;6.03;;;;;;;;;;5422004;26;20149;-58
2024/04/08 14:15:20;;;;;;;13.55;5.68;;;;;;;;;;5421985;26;19991;-57
2024/04/08 14:17:45;;;;;;;14.32;5.40;;;;;;;;;;5421962;26;20015;-57
2024/04/08 14:20:10;;;;;;;15.82;5.20;;;;;;;;;;5421436;26;20107;-58
2024/04/08 14:22:35;;;;;;;16.85;5.88;;;;;;;;;;5421800;26;20002;-58
2024/04/08 14:25:01;;;;;;;11.73;4.63;;;;;;;;;;5421751;26;20047;-58
2024/04/08 14:27:26;;;;;;;14.35;5.13;;;;;;;;;;5421580;26;20011;-58